GCLPGMML

Guest
Details From GCLP - Gran Canaria
To GMML - HASSAN I
Flight Number -
Tags generated
Created
Modified
Stats Distance 170 nm / 315 km
Max Altitude 17,000 ft / 5,182 m
Waypoints 3
Social Downloads 1
Likes 0
Share VATSIM

Download

Looking for another format? Having issues loading an existing format? Contact us
Advertisement - Login to hide

Notes

Basic altitude profile: - Ascent Rate: 2500ft/min - Ascent Speed: 250kts - Cruise Altitude: 35000ft - Cruise Speed: 420kts - Descent Rate: 1500ft/min - Descent Speed: 250kts Options: - Use NATs: yes - Use PACOTS: yes - Use low airways: yes - Use high airways: yes

Route

GCLP FTV GMML

ID Type Via Altitude Latitude Longitude Leg Dist Tot Dist Heading (true) Name
O GCLP APT - 0 ft / 0 m 27.93154˚ -15.38559˚ - 0 nm - Gran Canaria
FTV VOR - 17,000 ft / 5,182 m 28.43078˚ -13.86450˚ 85 nm 85 nm 69° / 70° FUERTEVENTURA VOR-DME
O GMML APT - 0 ft / 0 m 27.14365˚ -13.22540˚ 84 nm 170 nm 156° / 156° HASSAN I

Altitude Profile

Advertisement - Login to hide

Weather


0- 5 10 15 20 25 30 35+ Temperature / ° C

Clouds and Precipitation
Forecast for 2017-12-13 18:00 UTC. Updated 2 hours ago

Ground ~20,000 ft ~40,000 ft Winds

GCLP

Details ICAO GCLP (LPA)
Name Gran Canaria
Region Canary Islands
Timezone Atlantic/Canary (UTC+0.0)
Stats Elevation 77 ft / 23 m (AMSL)
Location 27.931544° -15.385592°
Runways 2
Magnetic Variation 4.685° W

METAR

GCLP 131630Z 03024KT 9999 FEW035 BKN045 19/10 Q1022 NOSIG

Decode

TAF

TAF GCLP 131400Z 1315/1415 02025KT 9999 SCT040 TX20/1414Z TN16/1406Z TEMPO 1315/1320 02025G38KT BECMG 1322/1324 03015KT

Decode

Departure Runways

ID Width Length Bearing (true) Bearing (mag) Surface Threshold Offset Overrun Length
03L 148 ft / 45 m 10,203 ft / 3,110 m 21.33° 26.01° Asphalt 0 ft / 0 m 656 ft / 200 m
03R 148 ft / 45 m 10,200 ft / 3,109 m 21.32° 26.00° Asphalt 0 ft / 0 m 673 ft / 205 m
21L 148 ft / 45 m 10,200 ft / 3,109 m 201.33° 206.01° Asphalt 0 ft / 0 m 689 ft / 210 m
21R 148 ft / 45 m 10,203 ft / 3,110 m 201.33° 206.01° Asphalt 0 ft / 0 m 755 ft / 230 m

GMML

Details ICAO GMML (EUN)
Name HASSAN I
Region Morocco
Timezone Africa/El_Aaiun (UTC+0.0)
Stats Elevation 207 ft / 63 m (AMSL)
Location 27.143650° -13.225399°
Runways 2
Magnetic Variation 3.958° W

METAR

GMML 131600Z 05018KT 9999 FEW027 20/09 Q1019 NOSIG

Decode

TAF

TAF GMML 131100Z 1312/1418 03018KT 4000 HZ SCT020 TEMPO 1312/1319 05018G30KT BECMG 1317/1319 6000 NSW BECMG 1407/1409 CAVOK

Decode

Destination Runways

ID Width Length Bearing (true) Bearing (mag) Surface Threshold Offset Overrun Length
02 148 ft / 45 m 8,890 ft / 2,710 m 16.42° 20.38° Asphalt 0 ft / 0 m 200 ft / 61 m
04 148 ft / 45 m 8,221 ft / 2,506 m 31.58° 35.54° Asphalt 0 ft / 0 m 0 ft / 0 m
20 148 ft / 45 m 8,890 ft / 2,710 m 196.43° 200.39° Asphalt 0 ft / 0 m 200 ft / 61 m
22 148 ft / 45 m 8,221 ft / 2,506 m 211.59° 215.55° Asphalt 0 ft / 0 m 658 ft / 201 m

Popular Alternatives